createdAt,value
2023-02-02T00:00:50.495Z,97640.88
2023-02-02T00:05:55.180Z,97641.94
2023-02-02T00:10:58.228Z,97646.78
2023-02-02T00:16:22.592Z,97630.53
2023-02-02T00:21:26.961Z,97625.56
2023-02-02T00:26:29.928Z,97618.88
2023-02-02T00:31:32.839Z,97603.47
2023-02-02T00:36:37.096Z,97603.47
2023-02-02T00:41:39.893Z,97593.22
2023-02-02T00:46:43.332Z,97597.81
2023-02-02T00:51:47.481Z,97593.69
2023-02-02T00:56:50.348Z,97591.25
2023-02-02T01:01:53.930Z,97586.66
2023-02-02T01:06:58.118Z,97590.19
2023-02-02T01:12:00.963Z,97594.28
2023-02-02T01:17:05.268Z,97595.94
2023-02-02T01:22:09.686Z,97603.81
2023-02-02T01:27:12.525Z,97595.09
2023-02-02T01:32:15.331Z,97599.94
2023-02-02T01:37:19.511Z,97597.34
2023-02-02T01:42:24.161Z,97597.09
2023-02-02T01:47:28.370Z,97607.50
2023-02-02T01:52:33.664Z,97604.53
2023-02-02T01:57:39.829Z,97610.75
2023-02-02T02:02:45.541Z,97604.28
2023-02-02T02:07:50.539Z,97608.91
2023-02-02T02:12:53.338Z,97611.22
2023-02-02T02:18:03.033Z,97608.16
2023-02-02T02:24:11.706Z,97603.25
2023-02-02T02:29:48.106Z,97610.06
2023-02-02T02:34:56.192Z,97604.78
2023-02-02T02:40:04.349Z,97615.34
2023-02-02T02:45:09.503Z,97615.34
2023-02-02T02:50:13.741Z,97614.75
2023-02-02T02:55:16.689Z,97612.03
2023-02-02T03:00:31.927Z,97606.84
2023-02-02T03:05:44.497Z,97585.47
2023-02-02T03:10:48.247Z,97582.78
2023-02-02T03:15:51.132Z,97583.56
2023-02-02T03:20:55.429Z,97595.00
2023-02-02T03:25:58.272Z,97588.19
2023-02-02T03:31:02.156Z,97580.31
2023-02-02T03:36:07.148Z,97573.25
2023-02-02T03:41:09.957Z,97580.06
2023-02-02T03:46:12.812Z,97583.34
2023-02-02T03:51:17.089Z,97588.56
2023-02-02T03:56:20.327Z,97580.63
2023-02-02T04:01:27.896Z,97576.53
2023-02-02T04:06:32.137Z,97566.53
2023-02-02T04:11:35.009Z,97567.56
2023-02-02T04:16:38.000Z,97573.00
2023-02-02T04:21:42.208Z,97582.50
2023-02-02T04:26:46.313Z,97586.03
2023-02-02T04:31:49.210Z,97597.09
2023-02-02T04:36:53.350Z,97604.97
2023-02-02T04:41:56.417Z,97606.28
2023-02-02T04:47:00.197Z,97604.66
2023-02-02T04:52:04.545Z,97619.25
2023-02-02T04:57:07.384Z,97610.28
2023-02-02T05:02:10.294Z,97614.63
2023-02-02T05:07:14.795Z,97624.06
2023-02-02T05:12:17.622Z,97617.84
2023-02-02T05:17:20.477Z,97614.28
2023-02-02T05:22:24.707Z,97613.50
2023-02-02T05:27:27.740Z,97623.59
2023-02-02T05:32:30.620Z,97626.53
2023-02-02T05:37:35.086Z,97635.34
2023-02-02T05:42:38.072Z,97631.34
2023-02-02T05:47:40.861Z,97629.47
2023-02-02T05:52:46.244Z,97630.28
2023-02-02T05:57:49.051Z,97625.78
2023-02-02T06:02:51.987Z,97630.06
2023-02-02T06:07:57.671Z,97641.47
2023-02-02T06:13:00.484Z,97642.88
2023-02-02T06:18:03.342Z,97643.47
2023-02-02T06:23:07.779Z,97641.59
2023-02-02T06:28:10.629Z,97651.34
2023-02-02T06:33:13.494Z,97644.50
2023-02-02T06:38:19.049Z,97652.28
2023-02-02T06:43:21.885Z,97650.03
2023-02-02T06:48:24.776Z,97651.72
2023-02-02T06:53:29.083Z,97660.63
2023-02-02T06:58:32.625Z,97659.31
2023-02-02T07:03:35.938Z,97662.88
2023-02-02T07:08:40.148Z,97678.25
2023-02-02T07:13:43.029Z,97681.19
2023-02-02T07:18:47.567Z,97677.34
2023-02-02T07:23:51.917Z,97687.56
2023-02-02T07:28:54.773Z,97686.53
2023-02-02T07:33:57.894Z,97684.16
2023-02-02T07:39:04.728Z,97686.63
2023-02-02T07:44:08.034Z,97692.03
2023-02-02T07:49:13.592Z,97685.31
2023-02-02T07:54:17.779Z,97697.09
2023-02-02T07:59:20.668Z,97690.88
2023-02-02T08:04:23.535Z,97699.00
2023-02-02T08:09:27.782Z,97692.88
2023-02-02T08:14:30.660Z,97706.53
2023-02-02T08:19:33.475Z,97693.81
2023-02-02T08:24:40.492Z,97694.97
2023-02-02T08:29:43.597Z,97692.28
2023-02-02T08:34:46.408Z,97712.28
2023-02-02T08:39:51.455Z,97715.81
2023-02-02T08:46:00.434Z,97719.94
2023-02-02T08:50:18.082Z,97710.75
2023-02-02T08:55:22.391Z,97723.78
2023-02-02T09:00:25.524Z,97717.31
2023-02-02T09:05:28.516Z,97721.91
2023-02-02T09:10:32.925Z,97721.31
2023-02-02T09:15:35.727Z,97729.44
2023-02-02T09:20:39.122Z,97738.38
2023-02-02T09:25:43.331Z,97732.75
2023-02-02T09:30:46.361Z,97735.44
2023-02-02T09:35:49.204Z,97727.69
2023-02-02T09:40:53.424Z,97733.94
2023-02-02T09:45:59.693Z,97739.34
2023-02-02T09:51:09.140Z,97740.13
2023-02-02T09:56:19.715Z,97736.88
2023-02-02T10:01:24.223Z,97736.88
2023-02-02T10:06:34.145Z,97736.38
2023-02-02T10:11:42.208Z,97725.31
2023-02-02T10:16:45.637Z,97727.56
2023-02-02T10:21:53.754Z,97736.72
2023-02-02T10:27:04.040Z,97730.16
2023-02-02T10:32:13.577Z,97723.31
2023-02-02T10:37:25.533Z,97722.50
2023-02-02T10:42:36.957Z,97729.81
2023-02-02T10:47:39.826Z,97740.13
2023-02-02T10:52:45.239Z,97746.72
2023-02-02T10:57:54.055Z,97747.53
2023-02-02T11:02:57.206Z,97742.97
2023-02-02T11:08:00.377Z,97752.16
2023-02-02T11:13:05.351Z,97757.56
2023-02-02T11:18:16.404Z,97750.84
2023-02-02T11:23:20.293Z,97738.94
2023-02-02T11:28:28.627Z,97754.34
2023-02-02T11:33:34.072Z,97751.41
2023-02-02T11:38:36.972Z,97743.63
2023-02-02T11:43:44.241Z,97750.34
2023-02-02T11:48:50.097Z,97743.53
2023-02-02T11:54:03.018Z,97748.47
2023-02-02T11:59:07.413Z,97739.06
2023-02-02T12:04:25.582Z,97734.44
2023-02-02T12:09:28.538Z,97731.16
2023-02-02T12:14:37.712Z,97729.03
2023-02-02T12:20:04.576Z,97722.31
2023-02-02T12:25:34.829Z,97736.69
2023-02-02T12:30:44.620Z,97714.53
2023-02-02T12:36:06.406Z,97709.72
2023-02-02T12:41:26.968Z,97716.44
2023-02-02T12:46:41.382Z,97714.53
2023-02-02T12:51:54.689Z,97705.28
2023-02-02T12:57:02.281Z,97708.56
2023-02-02T13:02:12.048Z,97722.31
2023-02-02T13:07:39.690Z,97721.53
2023-02-02T13:12:44.930Z,97717.75
2023-02-02T13:17:52.480Z,97724.56
2023-02-02T13:22:58.742Z,97712.00
2023-02-02T13:28:01.775Z,97713.25
2023-02-02T13:33:11.546Z,97722.41
2023-02-02T13:38:18.203Z,97717.88
2023-02-02T13:43:29.099Z,97720.03
2023-02-02T13:48:43.323Z,97725.44
2023-02-02T13:54:05.467Z,97724.59
2023-02-02T13:59:28.001Z,97713.53
2023-02-02T14:04:32.263Z,97725.44
2023-02-02T14:09:37.140Z,97733.81
2023-02-02T14:14:40.401Z,97739.22
2023-02-02T14:20:02.466Z,97746.50
2023-02-02T14:25:47.499Z,97743.34
2023-02-02T14:31:30.261Z,97750.72
2023-02-02T14:36:33.315Z,97762.75
2023-02-02T14:42:03.867Z,97763.25
2023-02-02T14:47:40.158Z,97770.53
2023-02-02T14:52:44.424Z,97766.78
2023-02-02T14:57:55.443Z,97765.22
2023-02-02T15:03:34.310Z,97774.91
2023-02-02T15:08:38.530Z,97772.91
2023-02-02T15:13:43.548Z,97781.19
2023-02-02T15:18:47.999Z,97783.28
2023-02-02T15:23:52.216Z,97795.19
2023-02-02T15:28:57.871Z,97776.09
2023-02-02T15:34:02.556Z,97787.34
2023-02-02T15:39:11.766Z,97791.91
2023-02-02T15:44:21.458Z,97785.75
2023-02-02T15:49:34.630Z,97790.25
2023-02-02T15:54:39.550Z,97789.28
2023-02-02T15:59:43.537Z,97787.16
2023-02-02T16:04:46.389Z,97797.84
2023-02-02T16:09:50.881Z,97792.88
2023-02-02T16:14:54.944Z,97800.81
2023-02-02T16:20:00.480Z,97803.66
2023-02-02T16:25:10.481Z,97820.28
2023-02-02T16:30:24.394Z,97815.50
2023-02-02T16:35:34.462Z,97826.22
2023-02-02T16:40:39.243Z,97826.44
2023-02-02T16:45:47.105Z,97835.88
2023-02-02T16:51:05.457Z,97856.16
2023-02-02T16:56:10.343Z,97845.78
2023-02-02T17:01:16.682Z,97853.31
2023-02-02T17:06:29.606Z,97853.56
2023-02-02T17:11:35.451Z,97858.84
2023-02-02T17:16:38.374Z,97852.03
2023-02-02T17:21:41.244Z,97853.94
2023-02-02T17:26:47.786Z,97867.22
2023-02-02T17:31:51.978Z,97879.09
2023-02-02T17:36:55.159Z,97875.81
2023-02-02T17:42:00.142Z,97876.63
2023-02-02T17:47:02.969Z,97872.50
2023-02-02T17:52:06.250Z,97871.69
2023-02-02T17:57:10.419Z,97866.50
2023-02-02T18:02:13.655Z,97868.66
2023-02-02T18:07:16.443Z,97865.69
2023-02-02T18:12:20.667Z,97868.16
2023-02-02T18:17:23.551Z,97864.66
2023-02-02T18:22:26.994Z,97856.75
2023-02-02T18:27:31.260Z,97866.16
2023-02-02T18:32:38.427Z,97862.28
2023-02-02T18:37:41.226Z,97860.41
2023-02-02T18:42:46.648Z,97858.50
2023-02-02T18:47:49.626Z,97857.22
2023-02-02T18:52:53.055Z,97849.94
2023-02-02T18:57:57.306Z,97845.81
2023-02-02T19:03:00.168Z,97853.59
2023-02-02T19:08:04.070Z,97844.88
2023-02-02T19:13:17.919Z,97851.94
2023-02-02T19:18:22.359Z,97851.69
2023-02-02T19:23:32.218Z,97848.75
2023-02-02T19:28:36.525Z,97865.22
2023-02-02T19:33:41.542Z,97866.06
2023-02-02T19:38:44.462Z,97860.06
2023-02-02T19:43:49.352Z,97872.75
2023-02-02T19:48:53.855Z,97881.94
2023-02-02T19:54:00.082Z,97890.06
2023-02-02T19:59:04.573Z,97879.00
2023-02-02T20:04:12.249Z,97884.41
2023-02-02T20:09:17.715Z,97891.25
2023-02-02T20:14:30.244Z,97886.63
2023-02-02T20:19:35.955Z,97884.41
2023-02-02T20:24:40.576Z,97893.00
2023-02-02T20:29:45.722Z,97888.88
2023-02-02T20:34:49.664Z,97888.19
2023-02-02T20:39:55.263Z,97884.66
2023-02-02T20:44:59.556Z,97889.00
2023-02-02T20:50:04.045Z,97899.59
2023-02-02T20:55:07.713Z,97906.31
2023-02-02T21:00:15.297Z,97904.03
2023-02-02T21:05:18.204Z,97903.47
2023-02-02T21:10:21.653Z,97906.41
2023-02-02T21:15:26.412Z,97906.75
2023-02-02T21:20:29.905Z,97899.25
2023-02-02T21:25:32.768Z,97895.47
2023-02-02T21:30:37.130Z,97896.31
2023-02-02T21:35:40.318Z,97894.06
2023-02-02T21:40:43.197Z,97899.13
2023-02-02T21:45:50.677Z,97904.97
2023-02-02T21:50:53.701Z,97908.31
2023-02-02T21:55:58.443Z,97907.25
2023-02-02T22:01:15.578Z,97915.47
2023-02-02T22:06:26.425Z,97905.72
2023-02-02T22:11:31.803Z,97913.22
2023-02-02T22:16:38.978Z,97915.34
2023-02-02T22:21:41.772Z,97930.53
2023-02-02T22:26:44.624Z,97927.25
2023-02-02T22:31:48.861Z,97931.38
2023-02-02T22:36:51.878Z,97944.41
2023-02-02T22:41:54.740Z,97940.06
2023-02-02T22:46:58.872Z,97952.19
2023-02-02T22:52:01.777Z,97951.81
2023-02-02T22:57:04.668Z,97952.06
2023-02-02T23:02:08.823Z,97956.75
2023-02-02T23:07:11.726Z,97957.16
2023-02-02T23:12:14.557Z,97960.88
2023-02-02T23:17:18.985Z,97974.66
2023-02-02T23:22:21.788Z,97983.25
2023-02-02T23:27:25.025Z,97983.72
2023-02-02T23:32:29.151Z,97990.16
2023-02-02T23:37:32.025Z,97989.50
2023-02-02T23:42:34.954Z,97994.06
2023-02-02T23:47:39.416Z,98000.06
2023-02-02T23:52:42.327Z,98004.44
2023-02-02T23:57:45.452Z,98005.72
